Acapulco, Mexico

1:30 PM CST on February 13, 2016 (GMT -0600)
Gen Juan N Alvarez International | | Change Station
CLOSE
Current Station
Airport
Location: Acapulco,
Elevation: 16 ft
Nearby Weather Stations

Elev 16 ft 16.76 °N, 99.75 °W | Updated 45 minutes ago

Clear
Clear
90 °F
Feels Like 93 °F
N
8
Wind Variable Wind from South

Today
High -- | Low -- °F
--% Chance of Precip.
Yesterday
High -- | Low -- °F
Precip. -- in
Pressure 29.87 in
Visibility 8.0 miles
Clouds Clear
Heat Index 93 °F
Dew Point 68 °F
Humidity 49%
Rainfall 0.00 in
Snow Depth Not available.
7:06 AM 6:40 PM
Waxing Crescent, 33% visible
METAR MMAA 131845Z 18007KT 8SM SKC 32/20 A2987 RMK FU E
Pressure 29.87 in
Visibility 8.0 miles
Clouds Clear
Heat Index 93 °F
Dew Point 68 °F
Humidity 49%
Rainfall 0.00 in
Snow Depth Not available.
7:06 AM 6:40 PM
Waxing Crescent, 33% visible
METAR MMAA 131845Z 18007KT 8SM SKC 32/20 A2987 RMK FU E

10-Day Weather Forecast

No radar image for this location.
×

Almanac

Astronomy

Feb. 13, 2016 Rise Set
Actual Time
Civil Twilight
Nautical Twilight
Astronomical Twilight
Moon
Length of Visible Light
Length of Day
Tomorrow will be .
, % of the Moon is Illuminated

Today's Extremes

Country Highs Country Lows

Community

WunderPhotos

Upload Photos

1,892,642 photos uploaded!

WunderBlog® & News

Nearby

Air Quality

  Air Quality AQ Index Pollutant
Not available.

Snow Depth

Station Depth Elevation

Earthquake Activity

City Distance Mag. Time & Date
Minimum magnitude displayed is 2.5.

Coastal Water Temperatures

Place Temperature

Stations

Nearby Weather Stations

Station Location Temp. Windchill Dew Point Humidity Wind Precip. Elev Updated Type